Eckman, North Dakota
Current Conditions -  °F | °C
As of 7:58 PM on Thursday 18 Dec 2014 (Local Time) from KMIB Reporting Station
Overcast Overcast  
Wind Chill: 16°   Ceiling: 900
Heat Index: 22°   Visibility: 10mi
Dew Point: 22°   Wind: 5mph
Humidity: 99%   Direction: 180°S
Pressure: 29.99"   Gusts: NA
Location:  48.7978°N, 101.326°W
Report Text: KMIB 190158Z AUTO 18004KT 10SM OVC009 M05/M05 A2999 RMK AO2 SLP192 T10531054 $
Loading
Personal Weather Stations






























Interactive Weather Map New forecast layout! Learn more

10-Day Weather Forecast

Advertisements
Track Severe Weather on mobile